Time;durP1;ratioP1;P1;durP2;ratioP2;P2;SDS_P1;SDS_P2;PMS_P1;PMS_P2;Temp;Humidity;BMP_temperature;BMP_pressure;BME280_temperature;BME280_humidity;BME280_pressure;Samples;Min_cycle;Max_cycle;Signal;HPM_P1;HPM_P2
2023/11/16 00:01:28;;;;;;;0.95;0.40;;;;;;;2.10;76.48;101678.81;5009526;28;20073;-73
2023/11/16 00:03:55;;;;;;;0.70;0.45;;;;;;;2.13;76.45;101684.91;5003993;28;20074;-73
2023/11/16 00:06:22;;;;;;;1.88;0.30;;;;;;;2.13;76.87;101679.75;5006997;28;20050;-73
2023/11/16 00:08:49;;;;;;;0.70;0.32;;;;;;;2.13;76.65;101679.75;5005549;28;20409;-73
2023/11/16 00:11:17;;;;;;;3.22;0.30;;;;;;;2.12;76.38;101683.19;5008457;28;20050;-72
2023/11/16 00:13:46;;;;;;;0.73;0.30;;;;;;;2.13;76.35;101686.63;5004891;28;20050;-72
2023/11/16 00:16:13;;;;;;;0.80;0.50;;;;;;;2.12;76.24;101687.47;5006839;28;20127;-73
2023/11/16 00:18:41;;;;;;;0.63;0.30;;;;;;;2.12;76.61;101687.47;5006541;28;20066;-73
2023/11/16 00:21:08;;;;;;;0.38;0.30;;;;;;;2.11;76.01;101686.59;5006813;28;20487;-73
2023/11/16 00:23:35;;;;;;;0.52;0.30;;;;;;;2.10;76.30;101691.69;5005178;28;20489;-72
2023/11/16 00:26:02;;;;;;;0.90;0.30;;;;;;;2.09;75.96;101692.53;5007422;28;20080;-73
2023/11/16 00:28:30;;;;;;;1.02;0.30;;;;;;;2.09;76.03;101687.38;5006526;28;20052;-73
2023/11/16 00:30:58;;;;;;;0.82;0.35;;;;;;;2.07;76.34;101694.16;5006189;28;20050;-72
2023/11/16 00:33:25;;;;;;;3.80;0.40;;;;;;;2.07;76.25;101699.31;5006147;28;20873;-72
2023/11/16 00:35:55;;;;;;;0.98;0.38;;;;;;;2.05;75.95;101700.97;5007073;28;20528;-73
2023/11/16 00:38:25;;;;;;;1.70;0.50;;;;;;;2.03;76.25;101706.97;5007483;28;20058;-73
2023/11/16 00:40:54;;;;;;;1.13;0.38;;;;;;;2.03;75.81;101709.53;5005690;28;20048;-72
2023/11/16 00:43:21;;;;;;;1.10;0.45;;;;;;;2.02;76.27;101710.38;5003963;28;20054;-84
2023/11/16 00:45:50;;;;;;;1.10;0.55;;;;;;;2.00;75.90;101709.44;5007929;28;20042;-85
2023/11/16 00:48:17;;;;;;;0.50;0.30;;;;;;;2.00;75.88;101712.03;5010435;28;20565;-84
2023/11/16 00:50:44;;;;;;;1.73;0.40;;;;;;;1.99;75.65;101718.03;5001606;28;20061;-84
2023/11/16 00:53:13;;;;;;;1.45;0.50;;;;;;;1.99;75.99;101720.59;5008148;28;20049;-73
2023/11/16 00:55:41;;;;;;;2.08;0.45;;;;;;;1.98;76.15;101715.38;5006279;28;20499;-73
2023/11/16 00:58:09;;;;;;;3.03;0.40;;;;;;;1.97;75.99;101713.63;5007114;28;20050;-74
2023/11/16 01:00:36;;;;;;;0.50;0.30;;;;;;;1.97;75.90;101717.09;5004576;28;20053;-73
2023/11/16 01:03:06;;;;;;;2.45;0.40;;;;;;;1.97;75.91;101713.63;5009171;28;20057;-73
2023/11/16 01:05:33;;;;;;;0.60;0.38;;;;;;;1.96;76.02;101720.50;5007587;28;20050;-73
2023/11/16 01:08:00;;;;;;;0.60;0.40;;;;;;;1.95;76.16;101718.72;5008035;28;20058;-73
2023/11/16 01:10:29;;;;;;;1.48;0.30;;;;;;;1.94;75.99;101714.41;5006598;28;20062;-73
2023/11/16 01:12:56;;;;;;;0.80;0.40;;;;;;;1.94;75.96;101719.56;5005178;28;20053;-78
2023/11/16 01:15:25;;;;;;;0.50;0.35;;;;;;;1.94;75.74;101719.56;5005242;28;20046;-74
2023/11/16 01:17:52;;;;;;;2.05;0.40;;;;;;;1.93;75.81;101717.78;5006123;28;20081;-73
2023/11/16 01:20:23;;;;;;;1.45;0.75;;;;;;;1.92;75.86;101726.38;5010787;28;20054;-73
2023/11/16 01:23:01;;;;;;;0.90;0.50;;;;;;;1.92;76.04;101720.34;5011356;28;20705;-74
2023/11/16 01:25:28;;;;;;;1.38;0.65;;;;;;;1.90;76.05;101722.84;5009528;28;20054;-73
2023/11/16 01:27:57;;;;;;;1.27;0.82;;;;;;;1.89;76.04;101728.84;5011213;28;20494;-74
2023/11/16 01:30:24;;;;;;;1.08;0.40;;;;;;;1.90;75.85;101729.72;5007565;28;20054;-73
2023/11/16 01:32:52;;;;;;;1.08;0.55;;;;;;;1.86;75.42;101723.59;5011192;28;20061;-73
2023/11/16 01:35:21;;;;;;;1.63;0.52;;;;;;;1.88;75.60;101734.84;5008976;28;20515;-74
2023/11/16 01:37:52;;;;;;;1.15;0.40;;;;;;;1.87;75.63;101729.63;5011634;28;20046;-73
2023/11/16 01:40:18;;;;;;;1.30;0.38;;;;;;;1.81;75.86;101722.56;5010027;28;20050;-73
2023/11/16 01:42:45;;;;;;;1.05;0.50;;;;;;;1.85;75.43;101728.69;5010363;28;20076;-73
2023/11/16 01:45:30;;;;;;;1.40;0.65;;;;;;;1.81;76.04;101730.28;5010794;28;20058;-74
2023/11/16 01:48:00;;;;;;;1.25;0.50;;;;;;;1.83;75.61;101728.66;5010146;28;20052;-73
2023/11/16 01:50:30;;;;;;;1.02;0.50;;;;;;;1.83;75.77;101730.34;5010782;28;20575;-74
2023/11/16 01:53:04;;;;;;;0.68;0.30;;;;;;;1.83;75.62;101733.81;5011531;28;20081;-84
2023/11/16 01:55:32;;;;;;;1.80;0.60;;;;;;;1.80;75.20;101736.28;5009869;28;20058;-83
2023/11/16 01:58:05;;;;;;;1.67;0.43;;;;;;;1.80;75.40;101734.56;5000535;28;20053;-85
2023/11/16 02:00:34;;;;;;;2.30;0.40;;;;;;;1.79;75.43;101743.13;5005365;28;20406;-84
2023/11/16 02:03:03;;;;;;;1.38;0.70;;;;;;;1.78;75.57;101743.06;5011663;28;20049;-73
2023/11/16 02:05:33;;;;;;;0.70;0.52;;;;;;;1.76;75.96;101737.84;5006328;28;20131;-73
2023/11/16 02:08:01;;;;;;;0.90;0.45;;;;;;;1.78;75.81;101745.66;5009976;28;20049;-73
2023/11/16 02:10:30;;;;;;;2.65;0.50;;;;;;;1.76;75.42;101740.44;5009100;28;20396;-74
2023/11/16 02:12:57;;;;;;;1.48;0.60;;;;;;;1.78;75.74;101743.06;5009563;28;20038;-73
2023/11/16 02:15:25;;;;;;;3.55;0.60;;;;;;;1.78;75.30;101737.91;5010693;28;20061;-74
2023/11/16 02:17:52;;;;;;;0.60;0.30;;;;;;;1.75;75.72;101749.00;5008049;28;20045;-74
2023/11/16 02:20:25;;;;;;;2.90;0.65;;;;;;;1.76;75.37;101748.16;5009546;28;20050;-74
2023/11/16 02:22:55;;;;;;;3.15;0.63;;;;;;;1.76;75.43;101747.28;5010645;28;20513;-74
2023/11/16 02:25:26;;;;;;;1.25;0.57;;;;;;;1.74;75.29;101752.41;5005483;28;20045;-74
2023/11/16 02:27:54;;;;;;;2.72;0.52;;;;;;;1.74;75.27;101757.56;5010824;28;20478;-73
2023/11/16 02:30:22;;;;;;;1.25;0.40;;;;;;;1.73;75.59;101760.06;5006638;28;20050;-73
2023/11/16 02:32:50;;;;;;;1.63;0.65;;;;;;;1.72;75.07;101760.91;5010525;28;20060;-74
2023/11/16 02:35:17;;;;;;;0.70;0.50;;;;;;;1.72;75.32;101763.47;5007670;28;20073;-77
2023/11/16 02:37:43;;;;;;;2.97;0.50;;;;;;;1.73;75.22;101762.66;5011307;28;20056;-74
2023/11/16 02:40:11;;;;;;;1.05;0.60;;;;;;;1.72;75.47;101760.91;5004104;28;20057;-74
2023/11/16 02:42:40;;;;;;;1.10;0.47;;;;;;;1.72;75.25;101758.34;5007051;28;20046;-73
2023/11/16 02:45:08;;;;;;;1.42;0.50;;;;;;;1.71;75.22;101751.44;5008344;28;20065;-73
2023/11/16 02:47:36;;;;;;;2.65;0.65;;;;;;;1.68;75.29;101756.47;5006544;28;20439;-73
2023/11/16 02:50:04;;;;;;;1.95;0.50;;;;;;;1.69;75.63;101753.94;5008050;28;20067;-73
2023/11/16 02:52:31;;;;;;;2.15;0.47;;;;;;;1.70;75.40;101763.41;5007681;28;20049;-74
2023/11/16 02:54:58;;;;;;;0.98;0.40;;;;;;;1.69;75.15;101758.22;5008241;28;20430;-74
2023/11/16 02:57:25;;;;;;;2.25;0.60;;;;;;;1.68;74.96;101761.59;5007440;28;20054;-73
2023/11/16 02:59:53;;;;;;;1.05;0.57;;;;;;;1.67;74.90;101758.16;5010211;28;20104;-74
2023/11/16 03:02:20;;;;;;;3.03;0.45;;;;;;;1.66;75.40;101763.28;5009036;28;20454;-75
2023/11/16 03:04:47;;;;;;;1.10;0.40;;;;;;;1.63;74.97;101758.03;5009853;28;20042;-77
2023/11/16 03:07:15;;;;;;;0.70;0.43;;;;;;;1.64;75.34;101764.91;5009807;28;20249;-76
2023/11/16 03:09:42;;;;;;;2.25;0.65;;;;;;;1.63;74.80;101763.19;5010304;28;20042;-76
2023/11/16 03:12:09;;;;;;;1.40;0.50;;;;;;;1.63;75.59;101769.19;5007023;28;20383;-73
2023/11/16 03:14:36;;;;;;;3.13;0.70;;;;;;;1.63;74.80;101765.75;5007441;28;20053;-74
2023/11/16 03:17:06;;;;;;;3.55;0.50;;;;;;;1.62;74.91;101769.13;5010611;28;20638;-74
2023/11/16 03:19:34;;;;;;;0.80;0.50;;;;;;;1.60;74.76;101763.09;5004894;28;20111;-73
2023/11/16 03:22:02;;;;;;;0.90;0.60;;;;;;;1.59;75.25;101764.75;5008165;28;20050;-73
2023/11/16 03:24:30;;;;;;;0.82;0.40;;;;;;;1.56;74.83;101762.94;5008708;28;20050;-74
2023/11/16 03:26:57;;;;;;;1.63;0.90;;;;;;;1.56;74.67;101762.94;5008105;28;20052;-74
2023/11/16 03:29:25;;;;;;;1.33;0.70;;;;;;;1.56;74.87;101767.22;5008936;28;20052;-73
2023/11/16 03:31:52;;;;;;;2.97;0.60;;;;;;;1.55;74.75;101765.50;5004835;28;20252;-74
2023/11/16 03:34:20;;;;;;;1.75;0.50;;;;;;;1.52;75.44;101762.81;5008795;28;20042;-73
2023/11/16 03:36:47;;;;;;;1.60;0.60;;;;;;;1.53;74.82;101773.16;5007725;28;20056;-73
2023/11/16 03:39:16;;;;;;;2.00;0.50;;;;;;;1.52;75.42;101776.56;5004365;28;20049;-73
2023/11/16 03:41:43;;;;;;;2.45;0.60;;;;;;;1.51;75.13;101774.81;5007336;28;20050;-74
2023/11/16 03:44:10;;;;;;;4.20;0.90;;;;;;;1.51;75.47;101769.66;5006258;28;20042;-74
2023/11/16 03:46:38;;;;;;;4.65;0.63;;;;;;;1.49;74.67;101773.88;5006909;28;20503;-74
2023/11/16 03:49:05;;;;;;;1.90;0.90;;;;;;;1.47;75.16;101772.94;5006246;28;20048;-73
2023/11/16 03:51:33;;;;;;;1.88;0.50;;;;;;;1.45;74.76;101766.88;5008808;28;20465;-74
2023/11/16 03:54:00;;;;;;;1.75;0.50;;;;;;;1.40;74.99;101759.81;5003533;28;20046;-73
2023/11/16 03:56:26;;;;;;;1.40;0.57;;;;;;;1.42;75.28;101774.47;5008001;28;20058;-75
2023/11/16 03:58:53;;;;;;;1.33;0.95;;;;;;;1.42;75.07;101773.59;5007685;28;20048;-73
2023/11/16 04:01:20;;;;;;;2.25;0.50;;;;;;;1.42;74.54;101773.59;5004213;28;21436;-73
2023/11/16 04:03:47;;;;;;;3.42;0.45;;;;;;;1.40;74.47;101771.00;5007146;28;20046;-74
2023/11/16 04:06:20;;;;;;;5.68;0.50;;;;;;;1.40;75.11;101776.13;5006376;28;20125;-74
2023/11/16 04:08:48;;;;;;;1.13;0.60;;;;;;;1.39;75.14;101769.22;5005817;28;20046;-74
2023/11/16 04:11:17;;;;;;;2.38;0.55;;;;;;;1.38;74.60;101775.19;5007852;28;20409;-74
2023/11/16 04:13:46;;;;;;;3.25;0.70;;;;;;;1.35;74.86;101772.53;5006998;28;20080;-73
2023/11/16 04:16:21;;;;;;;4.18;0.52;;;;;;;1.31;74.78;101766.41;5009921;28;20050;-74
2023/11/16 04:18:49;;;;;;;4.65;1.63;;;;;;;1.31;74.34;101781.84;5007249;28;20045;-73
2023/11/16 04:21:18;;;;;;;4.40;0.60;;;;;;;1.34;74.99;101787.09;5003411;28;20545;-73
2023/11/16 04:23:46;;;;;;;0.60;0.43;;;;;;;1.33;75.06;101776.72;5004762;28;20552;-74
2023/11/16 04:26:16;;;;;;;5.32;1.50;;;;;;;1.33;75.08;101784.44;5008155;28;20050;-74
2023/11/16 04:28:44;;;;;;;2.10;0.82;;;;;;;1.31;74.64;101787.00;5002660;28;20046;-73
2023/11/16 04:31:11;;;;;;;1.83;0.77;;;;;;;1.31;74.90;101788.69;5008525;28;20061;-74
2023/11/16 04:33:40;;;;;;;4.65;0.50;;;;;;;1.30;74.83;101789.50;5007634;28;20058;-74
2023/11/16 04:36:08;;;;;;;4.10;0.60;;;;;;;1.30;74.52;101785.22;5009468;28;20104;-74
2023/11/16 04:38:35;;;;;;;1.48;0.60;;;;;;;1.28;74.81;101784.31;5003984;28;20049;-74
2023/11/16 04:41:03;;;;;;;2.40;0.60;;;;;;;1.27;74.76;101789.38;5005124;28;20521;-73
2023/11/16 04:43:33;;;;;;;2.88;0.50;;;;;;;1.26;74.71;101790.22;5008222;28;20140;-73
2023/11/16 04:46:00;;;;;;;1.50;0.55;;;;;;;1.25;74.52;101794.50;5005309;28;20510;-74
2023/11/16 04:48:27;;;;;;;1.00;0.45;;;;;;;1.24;74.80;101795.28;5007100;28;20042;-74
2023/11/16 04:50:55;;;;;;;1.27;0.60;;;;;;;1.24;75.13;101794.44;5007490;28;20042;-73
2023/11/16 04:53:22;;;;;;;1.88;0.60;;;;;;;1.22;74.33;101803.78;5007522;28;20493;-74
2023/11/16 04:55:49;;;;;;;2.88;0.65;;;;;;;1.21;74.30;101799.47;5005456;28;20483;-74
2023/11/16 04:58:16;;;;;;;1.65;0.60;;;;;;;1.19;74.25;101801.09;5005355;28;20057;-73
2023/11/16 05:00:44;;;;;;;1.30;0.50;;;;;;;1.18;74.41;101789.06;5006709;28;20056;-73
2023/11/16 05:03:11;;;;;;;1.40;0.50;;;;;;;1.18;74.57;101789.94;5004994;28;20056;-74
2023/11/16 05:05:38;;;;;;;1.13;0.45;;;;;;;1.16;74.64;101795.84;5003401;28;20050;-73
2023/11/16 05:08:05;;;;;;;2.40;0.40;;;;;;;1.15;74.51;101792.41;5006231;28;20070;-73
2023/11/16 05:10:32;;;;;;;2.72;0.65;;;;;;;1.15;74.66;101804.41;5008511;28;20048;-74
2023/11/16 05:12:59;;;;;;;2.72;0.50;;;;;;;1.13;74.33;101802.63;5006163;28;20080;-73
2023/11/16 05:15:26;;;;;;;1.38;0.68;;;;;;;1.13;74.49;101802.63;5004879;28;20040;-73
2023/11/16 05:17:54;;;;;;;2.83;0.60;;;;;;;1.13;74.42;101801.75;5005633;28;20050;-74
2023/11/16 05:20:21;;;;;;;0.70;0.40;;;;;;;1.12;74.66;101793.16;5007170;28;20533;-73
2023/11/16 05:22:49;;;;;;;2.25;0.40;;;;;;;1.11;74.94;101793.09;5008104;28;20466;-76
2023/11/16 05:25:16;;;;;;;1.25;0.40;;;;;;;1.09;74.59;101792.19;5008249;28;20103;-76
2023/11/16 05:27:43;;;;;;;3.17;0.70;;;;;;;1.07;74.32;101797.25;5007133;28;20046;-75
2023/11/16 05:30:11;;;;;;;2.22;0.38;;;;;;;1.09;74.19;101795.63;4999107;28;20072;-77
2023/11/16 05:32:38;;;;;;;1.63;0.43;;;;;;;1.08;74.61;101799.03;5005222;28;20108;-84
2023/11/16 05:35:08;;;;;;;2.20;0.82;;;;;;;1.08;74.35;101798.13;5009813;28;20042;-82
2023/11/16 05:37:35;;;;;;;1.45;0.40;;;;;;;1.08;74.40;101805.84;5009944;28;20054;-83
2023/11/16 05:40:05;;;;;;;1.40;0.50;;;;;;;1.07;74.31;101809.25;5010168;28;20057;-83
2023/11/16 05:42:32;;;;;;;1.30;0.47;;;;;;;1.06;74.97;101799.78;5007953;28;20058;-84
2023/11/16 05:44:59;;;;;;;1.95;0.40;;;;;;;1.02;74.40;101793.63;5010272;28;20050;-84
2023/11/16 05:47:26;;;;;;;1.33;0.55;;;;;;;1.06;74.37;101805.81;5009444;28;20056;-83
2023/11/16 05:49:53;;;;;;;3.35;0.40;;;;;;;1.05;74.27;101796.34;5003020;28;20108;-84
2023/11/16 05:52:21;;;;;;;2.83;0.50;;;;;;;1.05;74.92;101800.59;5011709;28;20085;-79
2023/11/16 05:54:47;;;;;;;1.17;0.40;;;;;;;1.02;74.50;101796.22;5007703;28;20410;-78
2023/11/16 05:57:15;;;;;;;1.88;0.43;;;;;;;1.03;74.88;101808.28;5001432;28;20054;-80
2023/11/16 05:59:42;;;;;;;2.45;0.50;;;;;;;1.03;74.57;101810.84;5006046;28;20517;-81
2023/11/16 06:02:10;;;;;;;0.82;0.40;;;;;;;1.03;74.96;101809.97;5004603;28;20046;-78
2023/11/16 06:04:37;;;;;;;1.50;0.60;;;;;;;1.00;74.77;101803.03;4999148;28;20046;-78
2023/11/16 06:07:05;;;;;;;2.60;0.40;;;;;;;1.02;74.28;101805.63;5010772;28;20042;-78
2023/11/16 06:09:33;;;;;;;1.27;0.55;;;;;;;1.02;74.66;101814.22;5006942;28;20057;-78
2023/11/16 06:12:01;;;;;;;1.90;0.52;;;;;;;0.98;74.60;101802.06;5008637;28;20046;-78
2023/11/16 06:14:31;;;;;;;1.83;0.50;;;;;;;1.00;75.09;101810.72;5008240;28;20042;-85
2023/11/16 06:16:59;;;;;;;3.30;0.40;;;;;;;1.00;74.82;101818.44;5006795;28;20507;-84
2023/11/16 06:19:27;;;;;;;1.35;0.50;;;;;;;0.99;74.63;101814.09;5003292;28;20066;-84
2023/11/16 06:21:54;;;;;;;4.07;0.50;;;;;;;0.99;74.17;101813.22;5012412;28;20064;-84
2023/11/16 06:24:21;;;;;;;2.25;0.80;;;;;;;0.96;74.65;101807.97;5011213;28;20513;-84
2023/11/16 06:26:49;;;;;;;1.73;0.60;;;;;;;0.99;74.70;101814.09;5005208;28;20057;-83
2023/11/16 06:29:16;;;;;;;2.28;0.55;;;;;;;1.00;74.86;101808.16;5012266;28;20049;-83
2023/11/16 06:31:43;;;;;;;0.85;0.52;;;;;;;0.98;74.25;101799.50;5007213;28;20054;-79
2023/11/16 06:34:10;;;;;;;1.25;0.50;;;;;;;0.99;74.87;101811.53;5009201;28;20049;-78
2023/11/16 06:36:37;;;;;;;2.22;0.45;;;;;;;0.92;74.87;101796.69;5009195;28;20487;-79
2023/11/16 06:39:04;;;;;;;3.47;0.60;;;;;;;1.00;74.87;101815.00;5008985;28;20069;-78
2023/11/16 06:41:31;;;;;;;4.40;0.70;;;;;;;1.00;74.19;101817.59;4999416;28;20062;-73
2023/11/16 06:44:00;;;;;;;3.03;0.50;;;;;;;0.99;74.76;101821.81;5009409;28;20042;-75
2023/11/16 06:46:32;;;;;;;2.53;0.50;;;;;;;0.96;74.56;101814.00;5008041;28;20054;-74
2023/11/16 06:48:58;;;;;;;1.50;0.60;;;;;;;0.97;74.89;101809.72;5007201;28;20046;-75
2023/11/16 06:51:25;;;;;;;3.50;0.47;;;;;;;0.98;74.38;101820.09;5011334;28;20042;-76
2023/11/16 06:53:52;;;;;;;0.63;0.38;;;;;;;1.00;74.58;101820.16;5012053;28;20072;-76
2023/11/16 06:56:19;;;;;;;1.23;0.63;;;;;;;1.01;73.92;101827.03;5011888;28;20046;-75
2023/11/16 06:58:47;;;;;;;2.35;0.55;;;;;;;0.96;73.80;101819.13;5012600;28;20049;-76
2023/11/16 07:01:15;;;;;;;1.40;0.93;;;;;;;0.99;74.25;101823.53;5009659;28;20096;-76
2023/11/16 07:03:44;;;;;;;1.02;0.30;;;;;;;0.99;74.04;101821.81;5007684;28;20056;-76
2023/11/16 07:06:13;;;;;;;0.85;0.43;;;;;;;1.00;73.85;101821.03;5010606;28;20426;-76
2023/11/16 07:08:41;;;;;;;2.00;0.80;;;;;;;1.00;74.37;101825.31;5005894;28;20454;-76
2023/11/16 07:11:08;;;;;;;1.38;0.50;;;;;;;1.00;74.25;101830.44;5007793;28;20042;-75
2023/11/16 07:13:36;;;;;;;2.63;0.70;;;;;;;1.01;74.75;101835.63;5007667;28;20053;-75
2023/11/16 07:16:03;;;;;;;5.68;0.60;;;;;;;1.02;74.32;101828.78;5006681;28;20061;-76
2023/11/16 07:18:31;;;;;;;0.77;0.52;;;;;;;1.02;74.44;101826.22;5007195;28;20143;-75
2023/11/16 07:21:04;;;;;;;1.70;0.50;;;;;;;0.99;73.84;101829.53;5007407;28;20406;-75
2023/11/16 07:23:32;;;;;;;2.67;0.60;;;;;;;1.02;73.91;101839.94;5009775;28;20053;-75
2023/11/16 07:26:00;;;;;;;2.88;0.50;;;;;;;0.98;74.26;101830.38;5010355;28;20050;-75
2023/11/16 07:28:27;;;;;;;4.93;0.73;;;;;;;1.01;73.77;101833.06;5008989;28;20049;-75
2023/11/16 07:30:53;;;;;;;3.97;0.90;;;;;;;1.00;73.98;101836.47;5009760;28;20052;-76
2023/11/16 07:33:23;;;;;;;2.67;0.98;;;;;;;1.02;73.50;101845.09;5006897;28;20042;-74
2023/11/16 07:35:51;;;;;;;4.43;0.80;;;;;;;1.02;73.40;101837.38;5009325;28;20133;-75
2023/11/16 07:38:20;;;;;;;1.77;0.57;;;;;;;1.02;73.10;101839.94;5009537;28;20144;-74
2023/11/16 07:40:46;;;;;;;5.80;0.90;;;;;;;1.03;73.34;101844.28;5007746;28;20060;-75
2023/11/16 07:43:15;;;;;;;1.88;1.23;;;;;;;1.02;72.79;101845.09;5010090;28;20050;-74
2023/11/16 07:45:43;;;;;;;4.07;1.02;;;;;;;1.02;72.83;101839.06;5009287;28;20050;-77
2023/11/16 07:48:13;;;;;;;3.13;1.20;;;;;;;1.01;72.97;101848.50;5009463;28;20135;-74
2023/11/16 07:50:40;;;;;;;7.03;1.13;;;;;;;1.03;73.52;101846.88;5007716;28;20078;-74
2023/11/16 07:53:10;;;;;;;4.38;1.10;;;;;;;1.04;73.34;101847.75;5009273;28;20050;-75
2023/11/16 07:55:37;;;;;;;1.80;0.90;;;;;;;1.04;72.78;101848.59;5005572;28;20444;-74
2023/11/16 07:58:05;;;;;;;2.63;0.75;;;;;;;1.04;72.84;101853.75;5010307;28;20054;-74
2023/11/16 08:00:37;;;;;;;6.03;1.63;;;;;;;1.03;72.60;101852.00;5007851;28;20140;-74
2023/11/16 08:05:48;;;;;;;4.97;1.17;;;;;;;1.02;72.46;101864.81;5010064;28;20108;-75
2023/11/16 08:08:18;;;;;;;5.10;1.08;;;;;;;1.02;71.98;101869.94;5006818;28;20046;-75
2023/11/16 08:10:46;;;;;;;4.82;1.38;;;;;;;0.97;72.29;101862.06;5007496;28;20492;-74
2023/11/16 08:13:17;;;;;;;5.93;1.45;;;;;;;1.00;72.29;101869.91;5008002;28;20128;-75
2023/11/16 08:15:52;;;;;;;12.88;2.53;;;;;;;0.99;71.21;101869.84;5006366;28;20050;-74
2023/11/16 08:18:21;;;;;;;2.63;1.63;;;;;;;1.00;72.22;101871.63;5005926;28;20133;-74
2023/11/16 08:20:48;;;;;;;3.20;1.17;;;;;;;1.02;72.15;101875.97;5007728;28;20081;-74
2023/11/16 08:23:18;;;;;;;5.25;1.75;;;;;;;1.04;72.51;101881.19;5008343;28;20042;-74
2023/11/16 08:25:47;;;;;;;3.10;1.20;;;;;;;1.03;71.33;101877.75;5007639;28;20507;-74
2023/11/16 08:28:14;;;;;;;4.97;2.42;;;;;;;1.05;72.21;101881.25;5007306;28;20439;-74
2023/11/16 08:30:42;;;;;;;6.75;1.60;;;;;;;1.06;71.80;101877.84;5007318;28;20060;-75
2023/11/16 08:33:09;;;;;;;5.38;1.92;;;;;;;1.07;72.37;101879.59;5007891;28;20081;-75
2023/11/16 08:35:37;;;;;;;4.15;1.60;;;;;;;1.08;71.94;101878.81;5009855;28;20080;-75
2023/11/16 08:38:05;;;;;;;3.22;1.38;;;;;;;1.09;72.04;101879.66;5007663;28;20217;-75
2023/11/16 08:40:34;;;;;;;6.85;1.83;;;;;;;1.10;72.19;101882.28;5008655;28;20045;-75
2023/11/16 08:43:01;;;;;;;5.68;1.85;;;;;;;1.10;71.51;101877.13;5008763;28;20238;-76
2023/11/16 08:45:28;;;;;;;5.75;1.70;;;;;;;1.11;71.29;101886.63;5004727;28;20050;-77
2023/11/16 08:47:59;;;;;;;5.25;1.60;;;;;;;1.10;71.57;101879.72;5011638;28;20048;-77
2023/11/16 08:50:26;;;;;;;5.63;1.33;;;;;;;1.08;71.53;101871.09;5007315;28;20058;-79
2023/11/16 08:52:53;;;;;;;4.32;1.90;;;;;;;1.10;71.81;101877.13;5003023;28;20044;-81
2023/11/16 08:55:22;;;;;;;2.53;1.23;;;;;;;1.12;71.58;101880.66;5006003;28;20045;-75
2023/11/16 08:57:51;;;;;;;4.03;1.75;;;;;;;1.09;71.02;101882.25;5006780;28;20103;-77
2023/11/16 09:00:33;;;;;;;9.23;2.28;;;;;;;1.10;71.74;101884.00;5009826;28;20046;-76
2023/11/16 09:03:02;;;;;;;6.13;1.70;;;;;;;1.11;70.94;101884.06;5005137;28;20050;-76
2023/11/16 09:05:31;;;;;;;4.35;1.90;;;;;;;1.12;70.37;101885.81;5003864;28;20709;-76
2023/11/16 09:08:01;;;;;;;4.20;1.50;;;;;;;1.13;70.80;101884.09;5006330;28;20089;-75
2023/11/16 09:10:28;;;;;;;2.97;1.65;;;;;;;1.13;71.05;101894.41;5006575;28;20074;-77
2023/11/16 09:12:56;;;;;;;1.45;0.80;;;;;;;1.11;70.79;101881.50;5009731;28;20049;-74
2023/11/16 09:15:23;;;;;;;3.90;1.65;;;;;;;1.07;70.46;101881.31;5007580;28;20077;-75
2023/11/16 09:17:51;;;;;;;3.47;1.50;;;;;;;1.12;70.52;101890.06;5007802;28;20470;-75
2023/11/16 09:20:19;;;;;;;4.55;1.85;;;;;;;1.13;70.82;101890.13;5008782;28;20045;-75
2023/11/16 09:22:48;;;;;;;5.45;1.98;;;;;;;1.14;70.93;101888.44;5009228;28;20046;-74
2023/11/16 09:25:19;;;;;;;2.92;1.45;;;;;;;1.15;70.71;101892.75;5006129;28;20121;-76
2023/11/16 09:27:50;;;;;;;4.93;1.85;;;;;;;1.15;70.26;101890.19;5004142;28;20392;-77
2023/11/16 09:30:21;;;;;;;3.40;1.20;;;;;;;1.13;71.03;101890.13;5009623;28;20049;-78
2023/11/16 09:32:49;;;;;;;6.10;1.63;;;;;;;1.15;71.12;101892.75;5009957;28;20058;-77
2023/11/16 09:35:16;;;;;;;3.58;1.42;;;;;;;1.13;70.80;101890.13;5005164;28;20045;-77
2023/11/16 09:37:45;;;;;;;3.05;1.20;;;;;;;1.16;70.31;101894.50;5001157;28;20049;-77
2023/11/16 09:40:14;;;;;;;3.40;1.35;;;;;;;1.16;71.23;101894.50;5012949;28;20064;-77
2023/11/16 09:42:43;;;;;;;4.50;1.45;;;;;;;1.16;70.01;101894.50;5010065;28;20051;-74
2023/11/16 09:45:11;;;;;;;4.10;1.63;;;;;;;1.17;70.12;101891.13;5010963;28;20065;-75
2023/11/16 09:47:44;;;;;;;3.45;1.20;;;;;;;1.18;70.24;101892.00;5005554;28;20073;-76
2023/11/16 09:50:14;;;;;;;5.03;1.35;;;;;;;1.16;70.29;101885.91;5011155;28;20422;-74
2023/11/16 09:52:41;;;;;;;3.38;1.75;;;;;;;1.18;70.60;101898.03;5008281;28;20050;-74
2023/11/16 09:55:16;;;;;;;5.22;1.45;;;;;;;1.20;70.06;101895.53;5011485;28;20050;-74
2023/11/16 09:57:45;;;;;;;3.05;1.30;;;;;;;1.20;70.57;101896.41;5012570;28;20045;-76
2023/11/16 10:00:18;;;;;;;2.63;1.27;;;;;;;1.20;70.77;101890.38;5005169;28;20049;-76
2023/11/16 10:02:47;;;;;;;3.25;1.10;;;;;;;1.22;70.96;101892.16;5011977;28;20057;-69
2023/11/16 10:05:24;;;;;;;3.45;1.52;;;;;;;1.23;70.78;101890.50;5010455;28;20566;-69
2023/11/16 10:07:52;;;;;;;5.43;1.55;;;;;;;1.24;70.67;101894.81;5009197;28;20081;-70
2023/11/16 10:10:20;;;;;;;2.83;0.90;;;;;;;1.25;70.66;101888.81;5010408;28;20531;-70
2023/11/16 10:12:50;;;;;;;3.15;1.25;;;;;;;1.26;70.82;101893.19;5010124;28;20049;-76
2023/11/16 10:15:19;;;;;;;2.80;1.15;;;;;;;1.28;71.15;101902.72;5010300;28;20416;-78
2023/11/16 10:17:48;;;;;;;3.92;1.25;;;;;;;1.29;70.96;101901.88;5014661;28;20422;-80
2023/11/16 10:20:16;;;;;;;3.13;1.10;;;;;;;1.32;70.72;101901.13;5008506;28;20049;-80
2023/11/16 10:22:45;;;;;;;4.60;1.33;;;;;;;1.31;70.53;101905.41;5008730;28;20050;-80
2023/11/16 10:25:12;;;;;;;4.85;1.30;;;;;;;1.33;70.94;101908.00;5011274;28;20561;-79
2023/11/16 10:27:39;;;;;;;3.10;1.17;;;;;;;1.35;70.90;101907.25;5013347;28;20045;-82
2023/11/16 10:30:11;;;;;;;4.60;1.60;;;;;;;1.35;70.43;101901.22;5006956;28;20101;-80
2023/11/16 10:32:40;;;;;;;6.55;2.22;;;;;;;1.35;70.50;101904.69;5012107;28;20058;-79
2023/11/16 10:35:12;;;;;;;4.35;1.60;;;;;;;1.39;69.73;101905.66;5010588;28;20113;-81
2023/11/16 10:37:41;;;;;;;7.18;2.15;;;;;;;1.40;70.05;101904.00;5003282;28;20150;-85
2023/11/16 10:40:10;;;;;;;3.70;1.27;;;;;;;1.40;69.98;101909.16;5010627;28;20054;-81
2023/11/16 10:42:38;;;;;;;3.72;1.80;;;;;;;1.40;69.88;101907.44;5013224;28;20046;-83
2023/11/16 10:45:06;;;;;;;7.57;1.33;;;;;;;1.39;70.26;101900.50;5014651;28;20054;-77
2023/11/16 10:47:33;;;;;;;5.30;1.92;;;;;;;1.43;70.14;101909.25;5012931;28;20042;-80
2023/11/16 10:50:00;;;;;;;5.03;1.73;;;;;;;1.43;70.04;101899.81;5009097;28;20104;-80
2023/11/16 10:52:32;;;;;;;5.80;2.10;;;;;;;1.45;69.76;101899.88;5009355;28;20713;-80
2023/11/16 10:55:01;;;;;;;3.58;1.65;;;;;;;1.47;70.05;101899.09;5012839;28;20050;-80
2023/11/16 10:57:31;;;;;;;8.45;2.80;;;;;;;1.48;69.58;101903.44;5005046;28;20058;-81
2023/11/16 11:00:00;;;;;;;5.68;1.83;;;;;;;1.47;69.66;101888.81;5013177;28;20049;-80
2023/11/16 11:02:27;;;;;;;6.43;2.03;;;;;;;1.49;69.04;101897.47;5012954;28;20046;-80
2023/11/16 11:04:54;;;;;;;6.72;2.45;;;;;;;1.49;69.51;101894.91;5010388;28;20070;-80
2023/11/16 11:07:23;;;;;;;7.57;2.20;;;;;;;1.51;70.04;101903.56;5012194;28;20049;-80
2023/11/16 11:09:52;;;;;;;2.75;1.20;;;;;;;1.52;69.74;101902.72;5010304;28;20052;-80
2023/11/16 11:12:21;;;;;;;5.88;1.73;;;;;;;1.54;70.03;101911.41;5008405;28;20041;-72
2023/11/16 11:14:53;;;;;;;5.57;1.83;;;;;;;1.57;70.21;101913.22;5009275;28;20053;-72
2023/11/16 11:17:20;;;;;;;6.55;3.05;;;;;;;1.57;69.03;101908.06;5007370;28;20137;-73
2023/11/16 11:19:56;;;;;;;5.43;1.77;;;;;;;1.62;69.20;101918.50;5010657;28;20044;-76
2023/11/16 11:22:27;;;;;;;4.85;1.48;;;;;;;1.60;69.43;101904.72;5010408;28;20065;-74
2023/11/16 11:24:56;;;;;;;6.55;1.67;;;;;;;1.63;69.41;101915.13;5005071;28;20392;-75
2023/11/16 11:27:25;;;;;;;5.15;2.25;;;;;;;1.64;69.48;101909.16;5010265;28;20618;-74
2023/11/16 11:29:54;;;;;;;4.25;2.10;;;;;;;1.64;69.88;101907.44;5007942;28;20050;-73
2023/11/16 11:32:26;;;;;;;3.13;1.17;;;;;;;1.66;69.90;101907.50;5011394;28;20461;-75
2023/11/16 11:34:53;;;;;;;4.72;2.42;;;;;;;1.64;68.93;101904.88;5009551;28;20062;-76
2023/11/16 11:37:21;;;;;;;5.15;2.22;;;;;;;1.66;69.56;101910.09;5009638;28;20049;-76
2023/11/16 11:39:49;;;;;;;4.97;1.88;;;;;;;1.66;69.12;101913.53;5006335;28;20070;-75
2023/11/16 11:42:18;;;;;;;5.05;2.58;;;;;;;1.69;68.47;101912.78;5008933;28;20483;-75